createdAt,value
2023-07-26T00:01:25.376Z,3.05
2023-07-26T00:03:56.366Z,2.92
2023-07-26T00:06:25.899Z,2.80
2023-07-26T00:08:54.114Z,2.83
2023-07-26T00:11:22.102Z,3.28
2023-07-26T00:13:50.421Z,3.20
2023-07-26T00:16:19.264Z,3.15
2023-07-26T00:18:47.302Z,3.45
2023-07-26T00:21:15.280Z,3.25
2023-07-26T00:23:44.674Z,3.08
2023-07-26T00:26:12.706Z,2.63
2023-07-26T00:28:40.928Z,2.85
2023-07-26T00:31:09.263Z,2.78
2023-07-26T00:36:05.499Z,2.63
2023-07-26T00:41:02.622Z,2.78
2023-07-26T00:43:30.618Z,2.65
2023-07-26T00:45:58.833Z,3.20
2023-07-26T00:48:27.129Z,2.80
2023-07-26T00:50:55.766Z,3.10
2023-07-26T00:53:24.546Z,2.95
2023-07-26T00:55:53.344Z,2.97
2023-07-26T00:58:23.435Z,3.30
2023-07-26T01:00:52.860Z,3.20
2023-07-26T01:03:20.905Z,2.80
2023-07-26T01:06:02.466Z,3.08
2023-07-26T01:08:41.153Z,2.40
2023-07-26T01:11:15.604Z,2.97
2023-07-26T01:13:49.339Z,3.15
2023-07-26T01:16:18.614Z,3.10
2023-07-26T01:18:46.623Z,2.58
2023-07-26T01:21:14.604Z,2.90
2023-07-26T01:23:43.972Z,2.95
2023-07-26T01:26:12.033Z,3.10
2023-07-26T01:28:40.058Z,3.20
2023-07-26T01:31:10.008Z,3.10
2023-07-26T01:33:39.432Z,2.63
2023-07-26T01:36:08.038Z,2.50
2023-07-26T01:38:36.609Z,2.90
2023-07-26T01:41:07.001Z,2.60
2023-07-26T01:43:35.438Z,2.92
2023-07-26T01:48:31.343Z,2.78
2023-07-26T01:50:59.359Z,2.85
2023-07-26T01:53:27.410Z,3.22
2023-07-26T01:55:55.404Z,2.78
2023-07-26T01:58:24.887Z,2.78
2023-07-26T02:00:52.872Z,2.45
2023-07-26T02:03:20.940Z,2.80
2023-07-26T02:05:49.531Z,3.08
2023-07-26T02:08:18.774Z,2.50
2023-07-26T02:10:46.860Z,2.85
2023-07-26T02:13:14.943Z,2.92
2023-07-26T02:15:44.310Z,2.80
2023-07-26T02:18:12.367Z,2.83
2023-07-26T02:20:40.411Z,2.53
2023-07-26T02:23:08.445Z,2.90
2023-07-26T02:25:36.532Z,3.17
2023-07-26T02:28:04.703Z,3.30
2023-07-26T02:30:32.689Z,2.90
2023-07-26T02:33:02.074Z,3.25
2023-07-26T02:35:30.560Z,2.85
2023-07-26T02:40:26.346Z,2.80
2023-07-26T02:42:55.915Z,2.75
2023-07-26T02:45:24.169Z,2.92
2023-07-26T02:47:52.182Z,3.05
2023-07-26T02:50:21.546Z,2.90
2023-07-26T02:52:49.557Z,2.80
2023-07-26T02:55:17.667Z,3.15
2023-07-26T02:57:45.657Z,3.10
2023-07-26T03:00:14.503Z,2.85
2023-07-26T03:02:42.643Z,2.92
2023-07-26T03:05:11.002Z,2.95
2023-07-26T03:07:40.558Z,3.03
2023-07-26T03:10:09.382Z,3.08
2023-07-26T03:12:37.390Z,2.95
2023-07-26T03:15:06.294Z,2.63
2023-07-26T03:17:34.973Z,2.78
2023-07-26T03:20:04.504Z,2.63
2023-07-26T03:22:32.580Z,2.60
2023-07-26T03:25:02.045Z,2.80
2023-07-26T03:27:32.617Z,2.40
2023-07-26T03:30:00.666Z,2.30
2023-07-26T03:32:28.744Z,2.30
2023-07-26T03:34:56.756Z,2.25
2023-07-26T03:37:24.870Z,1.88
2023-07-26T03:39:52.871Z,2.10
2023-07-26T03:42:22.308Z,2.38
2023-07-26T03:44:50.270Z,1.88
2023-07-26T03:47:18.270Z,1.90
2023-07-26T03:49:46.313Z,1.77
2023-07-26T03:52:14.273Z,1.70
2023-07-26T03:54:42.217Z,1.67
2023-07-26T03:57:10.224Z,1.65
2023-07-26T03:59:39.622Z,1.70
2023-07-26T04:02:07.773Z,2.20
2023-07-26T04:04:37.835Z,1.60
2023-07-26T04:07:06.197Z,2.15
2023-07-26T04:09:34.471Z,1.60
2023-07-26T04:12:02.428Z,1.80
2023-07-26T04:14:30.413Z,2.40
2023-07-26T04:16:59.739Z,1.90
2023-07-26T04:19:27.738Z,2.05
2023-07-26T04:21:55.744Z,1.95
2023-07-26T04:24:24.304Z,1.67
2023-07-26T04:26:53.846Z,1.90
2023-07-26T04:29:22.946Z,1.52
2023-07-26T04:31:50.942Z,2.00
2023-07-26T04:34:20.300Z,1.70
2023-07-26T04:36:48.352Z,1.95
2023-07-26T04:39:16.366Z,1.90
2023-07-26T04:41:44.377Z,1.80
2023-07-26T04:44:12.365Z,1.80
2023-07-26T04:46:40.407Z,1.70
2023-07-26T04:49:08.425Z,2.08
2023-07-26T04:51:37.794Z,1.65
2023-07-26T04:54:06.738Z,2.13
2023-07-26T04:56:35.013Z,2.15
2023-07-26T04:59:03.669Z,2.25
2023-07-26T05:01:31.910Z,2.60
2023-07-26T05:04:00.194Z,2.50
2023-07-26T05:06:28.332Z,1.80
2023-07-26T05:08:57.783Z,1.65
2023-07-26T05:11:25.852Z,2.20
2023-07-26T05:13:53.876Z,1.92
2023-07-26T05:16:21.949Z,1.65
2023-07-26T05:18:50.056Z,2.13
2023-07-26T05:21:18.018Z,1.98
2023-07-26T05:23:46.021Z,2.17
2023-07-26T05:26:15.552Z,1.95
2023-07-26T05:28:43.533Z,1.98
2023-07-26T05:31:11.722Z,1.73
2023-07-26T05:33:39.839Z,2.40
2023-07-26T05:36:08.164Z,1.98
2023-07-26T05:38:36.166Z,2.10
2023-07-26T05:41:05.622Z,2.20
2023-07-26T05:43:35.385Z,2.15
2023-07-26T05:46:04.482Z,2.03
2023-07-26T05:48:32.759Z,2.10
2023-07-26T05:51:00.976Z,2.17
2023-07-26T05:53:28.947Z,2.17
2023-07-26T05:55:56.954Z,2.35
2023-07-26T05:58:24.907Z,1.85
2023-07-26T06:00:54.879Z,2.10
2023-07-26T06:03:24.061Z,1.70
2023-07-26T06:05:52.128Z,2.30
2023-07-26T06:08:20.377Z,2.17
2023-07-26T06:10:48.403Z,2.22
2023-07-26T06:13:18.136Z,2.17
2023-07-26T06:15:46.351Z,2.42
2023-07-26T06:18:15.666Z,1.88
2023-07-26T06:20:43.757Z,1.92
2023-07-26T06:23:11.743Z,1.92
2023-07-26T06:25:39.698Z,1.75
2023-07-26T06:28:07.674Z,2.03
2023-07-26T06:30:35.702Z,2.00
2023-07-26T06:33:05.278Z,2.30
2023-07-26T06:35:34.710Z,1.70
2023-07-26T06:38:02.691Z,1.80
2023-07-26T06:40:31.444Z,1.88
2023-07-26T06:42:59.526Z,1.95
2023-07-26T06:45:27.535Z,1.77
2023-07-26T06:47:56.360Z,1.90
2023-07-26T06:50:24.506Z,1.80
2023-07-26T06:52:53.850Z,1.73
2023-07-26T06:55:24.573Z,1.90
2023-07-26T06:57:54.431Z,1.60
2023-07-26T07:00:23.748Z,2.00
2023-07-26T07:02:56.654Z,1.77
2023-07-26T07:05:25.200Z,2.30
2023-07-26T07:07:54.553Z,1.95
2023-07-26T07:10:23.866Z,2.05
2023-07-26T07:12:52.029Z,1.88
2023-07-26T07:15:22.141Z,2.20
2023-07-26T07:17:55.445Z,2.03
2023-07-26T07:20:29.681Z,1.90
2023-07-26T07:22:59.206Z,2.03
2023-07-26T07:25:27.303Z,2.20
2023-07-26T07:27:55.616Z,1.98
2023-07-26T07:30:23.641Z,1.88
2023-07-26T07:32:51.686Z,1.90
2023-07-26T07:35:19.684Z,2.00
2023-07-26T07:37:47.671Z,1.75
2023-07-26T07:40:17.096Z,1.90
2023-07-26T07:42:46.086Z,1.88
2023-07-26T07:45:14.068Z,1.80
2023-07-26T07:47:42.098Z,1.60
2023-07-26T07:50:10.213Z,1.40
2023-07-26T07:52:38.275Z,1.70
2023-07-26T07:55:06.807Z,1.92
2023-07-26T07:57:37.112Z,1.70
2023-07-26T08:00:05.845Z,1.75
2023-07-26T08:02:33.934Z,2.20
2023-07-26T08:05:01.904Z,1.92
2023-07-26T08:07:29.828Z,1.90
2023-07-26T08:09:57.904Z,1.70
2023-07-26T08:12:25.947Z,1.80
2023-07-26T08:14:55.661Z,1.77
2023-07-26T08:17:23.827Z,1.70
2023-07-26T08:19:52.103Z,1.75
2023-07-26T08:22:20.127Z,2.10
2023-07-26T08:24:48.756Z,1.67
2023-07-26T08:27:17.404Z,1.83
2023-07-26T08:29:45.439Z,1.38
2023-07-26T08:32:14.809Z,1.67
2023-07-26T08:34:42.789Z,1.70
2023-07-26T08:37:10.778Z,1.50
2023-07-26T08:39:38.826Z,1.60
2023-07-26T08:42:07.079Z,1.80
2023-07-26T08:44:36.159Z,1.58
2023-07-26T08:47:07.021Z,1.67
2023-07-26T08:49:36.885Z,1.60
2023-07-26T08:52:05.660Z,1.52
2023-07-26T08:54:34.988Z,1.40
2023-07-26T08:57:03.457Z,1.88
2023-07-26T08:59:31.758Z,1.77
2023-07-26T09:02:04.380Z,1.58
2023-07-26T09:04:33.282Z,1.70
2023-07-26T09:09:32.717Z,1.75
2023-07-26T09:12:01.585Z,1.75
2023-07-26T09:14:30.599Z,1.50
2023-07-26T09:16:59.264Z,1.60
2023-07-26T09:19:31.174Z,1.60
2023-07-26T09:22:00.814Z,1.45
2023-07-26T09:24:34.891Z,1.95
2023-07-26T09:27:08.721Z,1.50
2023-07-26T09:29:37.222Z,1.40
2023-07-26T09:32:07.091Z,1.80
2023-07-26T09:34:35.450Z,1.90
2023-07-26T09:39:34.362Z,1.83
2023-07-26T09:42:07.218Z,1.63
2023-07-26T09:44:35.880Z,2.10
2023-07-26T09:47:04.551Z,1.63
2023-07-26T09:52:14.531Z,1.85
2023-07-26T09:54:45.027Z,1.77
2023-07-26T09:57:15.131Z,1.92
2023-07-26T09:59:45.056Z,2.20
2023-07-26T10:02:15.264Z,1.85
2023-07-26T10:04:51.237Z,2.45
2023-07-26T10:07:19.449Z,2.08
2023-07-26T10:09:50.201Z,2.00
2023-07-26T10:12:18.539Z,1.83
2023-07-26T10:17:16.148Z,1.70
2023-07-26T10:19:47.220Z,1.50
2023-07-26T10:22:17.144Z,2.17
2023-07-26T10:24:45.231Z,1.85
2023-07-26T10:27:14.837Z,2.00
2023-07-26T10:29:42.931Z,1.55
2023-07-26T10:32:11.681Z,1.83
2023-07-26T10:34:41.117Z,1.77
2023-07-26T10:37:16.712Z,2.15
2023-07-26T10:39:45.455Z,1.40
2023-07-26T10:42:28.779Z,1.58
2023-07-26T10:44:57.448Z,1.55
2023-07-26T10:47:25.654Z,1.70
2023-07-26T10:49:56.634Z,1.35
2023-07-26T10:52:36.411Z,1.50
2023-07-26T10:55:24.642Z,1.80
2023-07-26T10:57:54.150Z,1.38
2023-07-26T11:00:35.916Z,1.42
2023-07-26T11:03:05.282Z,1.40
2023-07-26T11:05:33.647Z,1.45
2023-07-26T11:08:03.574Z,1.48
2023-07-26T11:10:33.085Z,1.35
2023-07-26T11:13:11.791Z,1.20
2023-07-26T11:16:12.513Z,1.20
2023-07-26T11:18:31.136Z,1.30
2023-07-26T11:20:59.344Z,1.50
2023-07-26T11:25:59.157Z,1.30
2023-07-26T11:28:32.186Z,1.38
2023-07-26T11:31:02.344Z,1.20
2023-07-26T11:33:32.222Z,1.25
2023-07-26T11:36:01.613Z,1.30
2023-07-26T11:38:29.983Z,1.15
2023-07-26T11:40:58.625Z,1.23
2023-07-26T11:43:30.088Z,1.30
2023-07-26T11:45:59.602Z,1.08
2023-07-26T11:48:32.340Z,1.13
2023-07-26T11:51:04.825Z,1.27
2023-07-26T11:53:44.027Z,1.10
2023-07-26T11:56:13.479Z,1.00
2023-07-26T12:01:11.379Z,0.95
2023-07-26T12:03:39.604Z,1.00
2023-07-26T12:06:10.799Z,0.82
2023-07-26T12:08:40.131Z,1.23
2023-07-26T12:11:08.811Z,0.80
2023-07-26T12:13:38.300Z,0.70
2023-07-26T12:16:10.506Z,0.82
2023-07-26T12:18:51.258Z,0.90
2023-07-26T12:23:54.462Z,0.85
2023-07-26T12:26:23.441Z,0.80
2023-07-26T12:28:53.132Z,1.10
2023-07-26T12:31:23.934Z,0.75
2023-07-26T12:34:00.026Z,1.10
2023-07-26T12:36:31.294Z,0.70
2023-07-26T12:39:00.071Z,0.90
2023-07-26T12:41:28.830Z,0.82
2023-07-26T12:43:58.589Z,1.00
2023-07-26T12:46:28.499Z,0.80
2023-07-26T12:48:57.650Z,0.77
2023-07-26T12:51:26.882Z,0.82
2023-07-26T12:53:55.198Z,0.73
2023-07-26T12:56:23.414Z,0.90
2023-07-26T13:01:38.695Z,0.60
2023-07-26T13:04:10.256Z,0.60
2023-07-26T13:06:39.739Z,0.65
2023-07-26T13:09:08.316Z,0.80
2023-07-26T13:14:04.697Z,0.52
2023-07-26T13:16:34.765Z,0.70
2023-07-26T13:19:06.187Z,0.55
2023-07-26T13:21:34.668Z,0.70
2023-07-26T13:24:03.214Z,0.80
2023-07-26T13:26:31.904Z,0.70
2023-07-26T13:29:02.966Z,0.60
2023-07-26T13:31:31.090Z,0.80
2023-07-26T13:33:59.202Z,0.68
2023-07-26T13:38:56.458Z,0.55
2023-07-26T13:41:24.534Z,0.70
2023-07-26T13:43:52.696Z,0.80
2023-07-26T13:49:03.262Z,0.70
2023-07-26T13:54:07.602Z,0.70
2023-07-26T13:56:38.427Z,0.75
2023-07-26T13:59:09.801Z,0.60
2023-07-26T14:01:38.626Z,0.70
2023-07-26T14:04:09.970Z,0.80
2023-07-26T14:06:39.688Z,0.80
2023-07-26T14:09:07.919Z,0.70
2023-07-26T14:14:04.662Z,0.70
2023-07-26T14:16:32.699Z,0.63
2023-07-26T14:19:00.787Z,0.70
2023-07-26T14:21:28.865Z,0.80
2023-07-26T14:23:59.387Z,0.82
2023-07-26T14:26:27.535Z,0.80
2023-07-26T14:28:55.638Z,0.70
2023-07-26T14:31:23.710Z,0.70
2023-07-26T14:36:21.842Z,0.77
2023-07-26T14:38:49.865Z,0.70
2023-07-26T14:41:19.471Z,0.50
2023-07-26T14:43:47.494Z,0.80
2023-07-26T14:46:15.469Z,0.60
2023-07-26T14:48:44.062Z,0.60
2023-07-26T14:51:12.062Z,0.75
2023-07-26T14:53:40.053Z,0.75
2023-07-26T14:56:08.299Z,0.60
2023-07-26T14:58:37.723Z,0.60
2023-07-26T15:01:05.885Z,0.50
2023-07-26T15:03:33.989Z,0.60
2023-07-26T15:06:02.131Z,0.50
2023-07-26T15:08:30.467Z,0.52
2023-07-26T15:10:58.477Z,0.80
2023-07-26T15:13:28.952Z,0.70
2023-07-26T15:15:58.427Z,0.70
2023-07-26T15:18:26.686Z,0.70
2023-07-26T15:20:54.984Z,0.50
2023-07-26T15:23:23.002Z,0.60
2023-07-26T15:25:51.126Z,0.65
2023-07-26T15:28:19.208Z,0.68
2023-07-26T15:30:47.236Z,0.63
2023-07-26T15:33:16.658Z,0.50
2023-07-26T15:35:44.771Z,0.70
2023-07-26T15:38:12.766Z,0.50
2023-07-26T15:48:14.292Z,0.70
2023-07-26T15:53:14.789Z,0.50
2023-07-26T15:55:44.150Z,0.50
2023-07-26T15:58:12.307Z,0.50
2023-07-26T16:00:40.381Z,0.70
2023-07-26T16:03:08.523Z,0.57
2023-07-26T16:05:40.214Z,0.50
2023-07-26T16:08:11.788Z,0.65
2023-07-26T16:10:40.240Z,0.75
2023-07-26T16:13:08.274Z,0.43
2023-07-26T16:16:22.938Z,0.52
2023-07-26T16:18:27.280Z,0.65
2023-07-26T16:23:28.443Z,0.93
2023-07-26T16:25:56.465Z,0.60
2023-07-26T16:28:24.656Z,0.57
2023-07-26T16:30:52.657Z,0.80
2023-07-26T16:35:48.407Z,0.60
2023-07-26T16:38:16.450Z,0.43
2023-07-26T16:43:13.784Z,0.65
2023-07-26T16:45:41.851Z,0.60
2023-07-26T16:50:38.581Z,0.50
2023-07-26T16:53:07.905Z,0.50
2023-07-26T16:55:36.245Z,0.70
2023-07-26T16:58:05.658Z,0.50
2023-07-26T17:00:33.678Z,0.75
2023-07-26T17:03:02.945Z,0.50
2023-07-26T17:05:31.197Z,0.70
2023-07-26T17:10:27.286Z,0.50
2023-07-26T17:12:56.619Z,0.57
2023-07-26T17:15:28.196Z,0.60
2023-07-26T17:17:56.264Z,0.60
2023-07-26T17:20:24.341Z,0.50
2023-07-26T17:22:52.315Z,0.68
2023-07-26T17:25:20.379Z,0.50
2023-07-26T17:27:48.471Z,0.60
2023-07-26T17:30:17.957Z,0.60
2023-07-26T17:32:47.461Z,0.73
2023-07-26T17:35:18.477Z,0.88
2023-07-26T17:37:47.411Z,0.73
2023-07-26T17:40:15.422Z,0.70
2023-07-26T17:42:43.521Z,0.70
2023-07-26T17:45:11.580Z,0.80
2023-07-26T17:47:39.763Z,0.65
2023-07-26T17:52:38.518Z,0.52
2023-07-26T17:55:07.507Z,0.63
2023-07-26T17:57:35.489Z,0.88
2023-07-26T18:00:05.144Z,0.70
2023-07-26T18:02:33.133Z,0.50
2023-07-26T18:05:01.948Z,0.75
2023-07-26T18:07:31.350Z,0.95
2023-07-26T18:09:59.373Z,0.68
2023-07-26T18:12:27.451Z,0.70
2023-07-26T18:14:55.654Z,0.70
2023-07-26T18:17:23.834Z,0.75
2023-07-26T18:19:51.849Z,0.52
2023-07-26T18:22:19.814Z,0.65
2023-07-26T18:24:50.401Z,0.70
2023-07-26T18:27:19.074Z,0.60
2023-07-26T18:29:47.518Z,0.73
2023-07-26T18:32:17.888Z,0.75
2023-07-26T18:34:45.892Z,0.52
2023-07-26T18:37:13.940Z,0.93
2023-07-26T18:39:42.128Z,1.00
2023-07-26T18:44:39.538Z,0.65
2023-07-26T18:47:10.899Z,0.65
2023-07-26T18:49:40.051Z,0.80
2023-07-26T18:52:09.060Z,0.60
2023-07-26T18:54:37.131Z,0.73
2023-07-26T18:57:05.960Z,0.70
2023-07-26T18:59:35.629Z,0.50
2023-07-26T19:02:04.379Z,0.50
2023-07-26T19:04:32.343Z,0.80
2023-07-26T19:07:00.349Z,0.70
2023-07-26T19:09:30.714Z,0.60
2023-07-26T19:12:00.567Z,0.52
2023-07-26T19:14:28.595Z,0.50
2023-07-26T19:16:58.479Z,0.47
2023-07-26T19:19:26.499Z,0.60
2023-07-26T19:21:54.484Z,0.60
2023-07-26T19:24:23.979Z,0.70
2023-07-26T19:26:52.116Z,0.60
2023-07-26T19:29:20.064Z,0.70
2023-07-26T19:31:48.031Z,0.52
2023-07-26T19:34:17.417Z,0.60
2023-07-26T19:36:45.509Z,0.50
2023-07-26T19:39:13.553Z,0.70
2023-07-26T19:41:41.540Z,0.70
2023-07-26T19:44:09.521Z,0.50
2023-07-26T19:46:37.912Z,0.68
2023-07-26T19:49:06.047Z,0.63
2023-07-26T19:51:35.755Z,0.60
2023-07-26T19:54:03.863Z,0.65
2023-07-26T19:56:31.986Z,0.60
2023-07-26T19:59:02.635Z,0.50
2023-07-26T20:01:30.667Z,0.73
2023-07-26T20:03:58.742Z,0.70
2023-07-26T20:06:27.167Z,0.70
2023-07-26T20:08:56.613Z,0.60
2023-07-26T20:11:24.571Z,0.70
2023-07-26T20:13:52.539Z,0.60
2023-07-26T20:16:21.951Z,0.50
2023-07-26T20:18:49.957Z,0.60
2023-07-26T20:21:19.400Z,0.68
2023-07-26T20:23:47.422Z,0.63
2023-07-26T20:26:16.770Z,0.50
2023-07-26T20:28:44.809Z,0.70
2023-07-26T20:31:12.817Z,0.73
2023-07-26T20:33:40.861Z,0.80
2023-07-26T20:36:08.780Z,0.80
2023-07-26T20:38:36.782Z,0.63
2023-07-26T20:41:04.868Z,0.70
2023-07-26T20:43:34.238Z,0.80
2023-07-26T20:46:02.351Z,0.68
2023-07-26T20:48:30.386Z,0.50
2023-07-26T20:50:58.809Z,0.70
2023-07-26T20:53:26.865Z,0.82
2023-07-26T20:55:57.729Z,0.90
2023-07-26T20:58:26.035Z,0.77
2023-07-26T21:03:23.274Z,0.85
2023-07-26T21:05:51.434Z,0.88
2023-07-26T21:08:19.590Z,0.88
2023-07-26T21:10:48.556Z,0.88
2023-07-26T21:13:16.941Z,1.20
2023-07-26T21:18:15.227Z,0.88
2023-07-26T21:20:43.225Z,0.85
2023-07-26T21:23:11.509Z,1.40
2023-07-26T21:25:39.499Z,1.08
2023-07-26T21:28:07.687Z,1.17
2023-07-26T21:30:35.774Z,1.40
2023-07-26T21:33:03.949Z,0.88
2023-07-26T21:35:33.469Z,1.17
2023-07-26T21:38:01.501Z,0.95
2023-07-26T21:40:29.767Z,0.90
2023-07-26T21:42:58.408Z,0.90
2023-07-26T21:45:26.450Z,0.80
2023-07-26T21:47:54.549Z,0.93
2023-07-26T21:50:22.634Z,0.80
2023-07-26T21:52:52.261Z,0.82
2023-07-26T21:55:20.312Z,1.00
2023-07-26T21:57:48.279Z,0.90
2023-07-26T22:00:16.485Z,0.82
2023-07-26T22:02:45.062Z,0.60
2023-07-26T22:05:13.199Z,0.80
2023-07-26T22:07:41.213Z,0.60
2023-07-26T22:10:11.888Z,0.70
2023-07-26T22:12:40.201Z,0.80
2023-07-26T22:15:09.924Z,0.70
2023-07-26T22:17:38.087Z,1.13
2023-07-26T22:20:07.156Z,0.73
2023-07-26T22:22:36.348Z,0.70
2023-07-26T22:25:04.559Z,0.73
2023-07-26T22:27:34.525Z,0.63
2023-07-26T22:30:03.591Z,0.63
2023-07-26T22:32:31.855Z,0.75
2023-07-26T22:35:00.126Z,0.68
2023-07-26T22:37:28.320Z,0.73
2023-07-26T22:39:56.712Z,0.60
2023-07-26T22:44:54.752Z,0.60
2023-07-26T22:47:22.783Z,0.70
2023-07-26T22:49:54.525Z,0.75
2023-07-26T22:52:23.018Z,0.70
2023-07-26T22:57:19.157Z,0.77
2023-07-26T22:59:49.455Z,0.70
2023-07-26T23:02:19.794Z,0.80
2023-07-26T23:04:48.054Z,0.77
2023-07-26T23:07:16.092Z,0.85
2023-07-26T23:09:44.058Z,0.90
2023-07-26T23:12:14.053Z,0.70
2023-07-26T23:14:42.282Z,0.70
2023-07-26T23:17:10.227Z,0.55
2023-07-26T23:19:39.878Z,0.70
2023-07-26T23:22:08.810Z,0.60
2023-07-26T23:24:37.295Z,0.80
2023-07-26T23:27:05.827Z,0.93
2023-07-26T23:32:01.579Z,0.90
2023-07-26T23:34:29.680Z,0.82
2023-07-26T23:36:59.135Z,0.90
2023-07-26T23:39:27.118Z,1.05
2023-07-26T23:41:55.180Z,0.95
2023-07-26T23:44:23.403Z,0.82
2023-07-26T23:46:51.507Z,0.70
2023-07-26T23:49:19.532Z,0.80
2023-07-26T23:51:47.817Z,0.95
2023-07-26T23:54:17.185Z,0.85
2023-07-26T23:56:45.251Z,0.80
2023-07-26T23:59:13.254Z,0.80
